Airfield :
LOGIN :

Register | Disclaimer

   EN    FR    IT 

 










Legend :    VFR   Marginal VFR   IFR   Intensive IFR   Very Intensive IFR
Visi :
Ceiling :
>= 8 km
>= 3000ft
5 to 8 km
1000 to 3000 ft
1500m to 5 km
500 to 1000 ft
800 to 1500m
200 to 500 ft
< 800m
< 200 ft
Symbols :   Thunderstorms  Fog  Heavy snow  Heavy precipitations  Wind > 20 kt
SIGMETs :     Misc.  Thunderstorms  Icing  Turbulence  Mountain Waves  Volcanic Ashes






- Airport Elevation : 56 ft
- IATA code : TRD


ENVA - Trondheim , Værnes

CURRENT METAR :
  • 171920Z 25015KT 9999 FEW023 OVC034 05/02 Q0972 TEMPO 26025G35KT 4000 SHRAGS BKN012CB RMK WIND 670FT 27019G35KT

EXPIRED METARs :
  • 171850Z 25017KT 9999 OVC029 05/03 Q0971 TEMPO 26025G35KT 4000 SHRAGS BKN012CB RMK WIND 670FT 26020G31KT
  • 171820Z 25012KT 9999 -RA OVC028 05/03 Q0970 RERA TEMPO 26025G35KT 4000 SHRAGS BKN012CB RMK WIND 670FT 25017G29KT
  • 171750Z 25023KT 9999 -RA FEW022 BKN034 06/03 Q0969 TEMPO 26025G35KT 4000 SHRAGS BKN012CB RMK WIND 670FT 26024G39KT
  • 171720Z VRB02KT 9999 FEW046 SCT066 BKN110 06/01 Q0967 BECMG 25020KT TEMPO SHRA BKN014CB RMK WIND 670FT 24007KT
  • 171650Z VRB02KT 9999 FEW053 SCT076 05/00 Q0966 BECMG 25020KT RMK WIND 670FT 20012KT

TAF TAF ENVA
Valid from the 17 at 18:00 until the 18 at 18:00 UTC


1718/1818 25020KT 9999 -SHRA FEW020TCU BKN025
TEMPO 1718/1802 26025G35KT
TEMPO 1718/1818 4000 SHRAGS BKN012CB
PROB30
TEMPO 1718/1720 TS
BECMG 1802/1805 22010KT



MET'MAP, your aeronautical weather chart ! - Copyright ORBIFLY December 2007 - Disclaimer

ORBIFLY MET'MAP TEAM :

Programming & Development : Alexandra Zaïnal
Concept & original design : Baudouin d'Aumeries
Assistance for programming : Marc-Olivier Méhu
Technical & hardware support : Manuel Goepfert

Contact : metmap@orbifly.com




SOURCES & CREDITS :

   NOAA